Time;durP1;ratioP1;P1;durP2;ratioP2;P2;SDS_P1;SDS_P2;PMS_P1;PMS_P2;Temp;Humidity;BMP_temperature;BMP_pressure;BME280_temperature;BME280_humidity;BME280_pressure;Samples;Min_cycle;Max_cycle;Signal;HPM_P1;HPM_P2
2022/04/15 00:02:13;;;;;;;22.25;15.05;;;13.20;99.90;;;;;;4993740;28;20165;-81
2022/04/15 00:04:38;;;;;;;25.42;16.20;;;13.30;99.90;;;;;;4993592;28;20549;-78
2022/04/15 00:07:04;;;;;;;26.30;14.77;;;13.20;99.90;;;;;;4993581;28;20205;-81
2022/04/15 00:09:30;;;;;;;24.30;15.93;;;13.30;99.90;;;;;;4993273;28;20618;-79
2022/04/15 00:12:00;;;;;;;26.92;15.82;;;13.30;99.90;;;;;;4993213;28;20183;-75
2022/04/15 00:14:26;;;;;;;39.97;23.48;;;13.30;99.90;;;;;;4993041;28;20189;-78
2022/04/15 00:16:51;;;;;;;34.72;24.33;;;13.40;99.90;;;;;;4993141;28;20196;-83
2022/04/15 00:19:17;;;;;;;39.53;23.92;;;13.40;99.90;;;;;;4992926;28;20172;-79
2022/04/15 00:21:43;;;;;;;41.63;25.30;;;13.50;99.90;;;;;;4993145;28;20235;-77
2022/04/15 00:24:09;;;;;;;41.22;23.88;;;13.40;99.90;;;;;;4993023;28;20197;-82
2022/04/15 00:26:34;;;;;;;42.63;23.55;;;13.20;99.90;;;;;;4992703;28;20269;-82
2022/04/15 00:29:00;;;;;;;35.05;23.30;;;13.30;99.90;;;;;;4996556;28;20247;-81
2022/04/15 00:31:26;;;;;;;40.72;24.52;;;13.20;99.90;;;;;;4997692;28;20208;-77
2022/04/15 00:33:51;;;;;;;36.78;23.92;;;13.20;99.90;;;;;;4996887;28;20201;-83
2022/04/15 00:36:17;;;;;;;42.35;25.52;;;13.30;99.90;;;;;;4997121;28;20196;-78
2022/04/15 00:38:43;;;;;;;37.38;25.13;;;13.30;99.90;;;;;;4996877;28;20218;-83
2022/04/15 00:41:14;;;;;;;42.22;25.38;;;13.20;99.90;;;;;;4995813;28;20644;-77
2022/04/15 00:43:39;;;;;;;40.22;24.75;;;13.20;99.90;;;;;;4996636;28;20193;-80
2022/04/15 00:46:09;;;;;;;40.47;25.40;;;13.20;99.90;;;;;;4996428;28;20177;-80
2022/04/15 00:48:38;;;;;;;47.65;24.90;;;13.20;99.90;;;;;;4996624;28;20244;-77
2022/04/15 00:51:05;;;;;;;35.92;24.40;;;13.20;99.90;;;;;;4995537;28;20177;-77
2022/04/15 00:53:32;;;;;;;43.70;25.98;;;13.20;99.90;;;;;;4996518;28;20204;-84
2022/04/15 00:56:01;;;;;;;42.60;24.60;;;13.30;99.90;;;;;;4996856;28;20161;-87
2022/04/15 00:58:28;;;;;;;41.65;24.10;;;13.40;99.90;;;;;;4996684;28;20177;-77
2022/04/15 01:00:56;;;;;;;41.08;22.95;;;13.40;99.90;;;;;;4996832;28;20248;-79
2022/04/15 01:03:22;;;;;;;35.60;20.38;;;13.50;99.90;;;;;;4996506;28;20224;-80
2022/04/15 01:05:52;;;;;;;34.92;18.85;;;13.60;99.90;;;;;;4996341;28;20193;-79
2022/04/15 01:08:22;;;;;;;25.38;18.85;;;13.40;99.90;;;;;;4996591;28;20201;-79
2022/04/15 01:10:51;;;;;;;34.25;20.40;;;13.20;99.90;;;;;;5000012;28;20188;-82
2022/04/15 01:13:18;;;;;;;30.77;20.00;;;13.00;99.90;;;;;;4995162;28;20185;-80
2022/04/15 01:15:44;;;;;;;36.58;21.83;;;12.80;99.90;;;;;;4996254;28;20520;-79
2022/04/15 01:18:09;;;;;;;31.98;20.50;;;12.80;99.90;;;;;;4996792;28;20510;-84
2022/04/15 01:20:36;;;;;;;32.00;21.05;;;12.60;99.90;;;;;;4996318;28;20696;-81
2022/04/15 01:23:12;;;;;;;32.22;19.70;;;12.50;99.90;;;;;;4995858;28;20192;-84
2022/04/15 01:25:38;;;;;;;30.55;19.88;;;12.40;99.90;;;;;;4996360;28;20200;-84
2022/04/15 01:28:04;;;;;;;38.47;19.63;;;12.50;99.90;;;;;;4995723;28;20213;-83
2022/04/15 01:30:30;;;;;;;33.60;19.60;;;12.60;99.90;;;;;;4995840;28;20645;-79
2022/04/15 01:32:56;;;;;;;30.90;19.95;;;12.50;99.90;;;;;;4996006;28;20190;-81
2022/04/15 01:35:22;;;;;;;27.80;19.15;;;12.60;99.90;;;;;;4995021;28;20515;-77
2022/04/15 01:37:49;;;;;;;34.83;20.58;;;12.60;99.90;;;;;;4995965;28;20176;-80
2022/04/15 01:40:17;;;;;;;35.67;22.63;;;12.80;99.90;;;;;;4997593;28;20168;-80
2022/04/15 01:42:43;;;;;;;33.88;22.05;;;12.70;99.90;;;;;;5000857;28;20165;-76
2022/04/15 01:45:10;;;;;;;30.70;20.27;;;12.60;99.90;;;;;;5000965;28;20308;-76
2022/04/15 01:47:36;;;;;;;36.42;23.23;;;12.60;99.90;;;;;;5001433;28;20217;-77
2022/04/15 01:50:07;;;;;;;34.60;21.77;;;12.40;99.90;;;;;;5003285;28;20169;-79
2022/04/15 01:52:32;;;;;;;32.33;21.20;;;12.40;99.90;;;;;;5002262;28;20166;-78
2022/04/15 01:54:58;;;;;;;32.80;21.08;;;12.40;99.90;;;;;;5001755;28;20208;-77
2022/04/15 01:57:24;;;;;;;44.20;23.38;;;12.40;99.90;;;;;;5002735;28;20204;-77
2022/04/15 01:59:49;;;;;;;38.28;22.95;;;12.30;99.90;;;;;;5003476;28;20798;-76
2022/04/15 02:02:15;;;;;;;36.90;22.38;;;12.30;99.90;;;;;;4999838;28;20575;-80
2022/04/15 02:04:41;;;;;;;34.88;22.48;;;12.30;99.90;;;;;;4995447;28;20189;-82
2022/04/15 02:07:07;;;;;;;39.65;22.95;;;12.30;99.90;;;;;;4995583;28;20209;-78
2022/04/15 02:09:32;;;;;;;36.67;23.42;;;12.40;99.90;;;;;;4999917;28;20170;-75
2022/04/15 02:11:58;;;;;;;36.55;22.60;;;12.30;99.90;;;;;;5000199;28;20173;-75
2022/04/15 02:14:24;;;;;;;34.22;22.85;;;12.30;99.90;;;;;;4998792;28;20185;-76
2022/04/15 02:16:53;;;;;;;43.20;24.80;;;12.40;99.90;;;;;;4999540;28;20177;-78
2022/04/15 02:19:19;;;;;;;34.10;22.35;;;12.20;99.90;;;;;;4999825;28;20198;-77
2022/04/15 02:21:45;;;;;;;40.00;22.77;;;12.10;99.90;;;;;;4998602;28;20704;-76
2022/04/15 02:24:11;;;;;;;36.65;21.30;;;12.00;99.90;;;;;;4995059;28;20188;-79
2022/04/15 02:26:37;;;;;;;32.85;21.55;;;12.00;99.90;;;;;;4995576;28;20560;-80
2022/04/15 02:29:02;;;;;;;32.97;22.60;;;11.90;99.90;;;;;;4994909;28;20173;-82
2022/04/15 02:31:28;;;;;;;34.05;21.00;;;11.80;99.90;;;;;;4994858;28;20229;-76
2022/04/15 02:33:53;;;;;;;45.03;23.13;;;11.90;99.90;;;;;;4994821;28;20193;-84
2022/04/15 02:36:19;;;;;;;31.88;21.02;;;11.80;99.90;;;;;;4994682;28;20177;-84
2022/04/15 02:38:45;;;;;;;35.45;22.23;;;11.70;99.90;;;;;;4994974;28;20703;-81
2022/04/15 02:41:11;;;;;;;35.13;23.63;;;11.70;99.90;;;;;;4995049;28;20173;-81
2022/04/15 02:43:38;;;;;;;35.58;22.73;;;11.80;99.90;;;;;;4994898;28;20196;-80
2022/04/15 02:46:06;;;;;;;36.63;23.67;;;11.80;99.90;;;;;;4995086;28;20725;-81
2022/04/15 02:48:32;;;;;;;43.63;24.15;;;11.80;99.90;;;;;;4994710;28;20177;-85
2022/04/15 02:50:59;;;;;;;38.75;24.17;;;11.80;99.90;;;;;;4994275;28;20166;-86
2022/04/15 02:53:25;;;;;;;33.20;23.40;;;11.80;99.90;;;;;;4994078;28;20212;-80
2022/04/15 02:55:52;;;;;;;45.83;25.23;;;11.60;99.90;;;;;;4993177;28;20165;-84
2022/04/15 02:58:17;;;;;;;42.60;26.02;;;11.70;99.90;;;;;;4994192;28;20168;-81
2022/04/15 03:00:43;;;;;;;41.28;24.50;;;11.80;99.90;;;;;;4994415;28;20251;-79
2022/04/15 03:03:08;;;;;;;41.40;25.67;;;11.80;99.90;;;;;;4994184;28;20260;-84
2022/04/15 03:05:34;;;;;;;39.75;25.10;;;11.80;99.90;;;;;;4994065;28;20174;-81
2022/04/15 03:08:00;;;;;;;41.15;26.33;;;11.90;99.90;;;;;;4993901;28;20614;-78
2022/04/15 03:10:25;;;;;;;39.38;26.35;;;11.90;99.90;;;;;;4994331;28;20176;-84
2022/04/15 03:12:51;;;;;;;50.08;27.92;;;11.80;99.90;;;;;;4994351;28;20215;-79
2022/04/15 03:15:17;;;;;;;44.35;26.58;;;11.90;99.90;;;;;;4994022;28;20219;-80
2022/04/15 03:17:43;;;;;;;53.70;29.05;;;12.00;99.90;;;;;;4993679;28;20180;-81
2022/04/15 03:20:09;;;;;;;42.00;27.67;;;12.00;99.90;;;;;;4992942;28;20169;-81
2022/04/15 03:22:41;;;;;;;53.58;30.30;;;11.90;99.90;;;;;;4994023;28;20174;-81
2022/04/15 03:25:11;;;;;;;50.08;27.83;;;11.90;99.90;;;;;;4993956;28;20260;-80
2022/04/15 03:27:37;;;;;;;59.60;29.95;;;11.90;99.90;;;;;;4993656;28;20212;-81
2022/04/15 03:30:04;;;;;;;54.08;31.55;;;12.00;99.90;;;;;;4994116;28;20173;-81
2022/04/15 03:32:30;;;;;;;52.17;31.40;;;12.10;99.90;;;;;;4994252;28;20243;-83
2022/04/15 03:34:57;;;;;;;57.15;30.98;;;12.30;99.90;;;;;;4993543;28;20228;-83
2022/04/15 03:37:23;;;;;;;52.33;31.65;;;12.20;99.90;;;;;;4994183;28;20625;-79
2022/04/15 03:39:49;;;;;;;56.65;33.00;;;12.00;99.90;;;;;;4992564;28;20188;-80
2022/04/15 03:42:15;;;;;;;53.45;31.63;;;11.80;99.90;;;;;;4992630;28;20172;-85
2022/04/15 03:44:40;;;;;;;54.80;30.98;;;11.70;99.90;;;;;;4993382;28;20546;-81
2022/04/15 03:47:07;;;;;;;54.22;30.10;;;11.70;99.90;;;;;;4993727;28;20211;-80
2022/04/15 03:49:33;;;;;;;63.58;33.40;;;11.80;99.90;;;;;;4993848;28;20173;-85
2022/04/15 03:51:59;;;;;;;58.08;32.78;;;11.90;99.90;;;;;;4993830;28;20173;-84
2022/04/15 03:54:25;;;;;;;59.15;33.65;;;12.00;99.90;;;;;;4993509;28;20200;-80
2022/04/15 03:56:51;;;;;;;61.78;34.33;;;12.00;99.90;;;;;;4993592;28;20165;-81
2022/04/15 03:59:16;;;;;;;60.80;32.55;;;11.90;99.90;;;;;;4993353;28;20563;-77
2022/04/15 04:01:42;;;;;;;58.45;34.20;;;11.80;99.90;;;;;;4993330;28;20177;-79
2022/04/15 04:04:08;;;;;;;59.53;34.35;;;11.80;99.90;;;;;;4997060;28;20216;-81
2022/04/15 04:06:34;;;;;;;55.05;32.63;;;11.80;99.90;;;;;;4997445;28;20534;-79
2022/04/15 04:08:59;;;;;;;60.03;32.97;;;11.80;99.90;;;;;;4997489;28;20188;-78
2022/04/15 04:11:25;;;;;;;57.92;33.35;;;11.80;99.90;;;;;;4997096;28;20169;-83
2022/04/15 04:13:51;;;;;;;61.90;34.13;;;11.80;99.90;;;;;;4996961;28;20193;-83
2022/04/15 04:16:18;;;;;;;59.42;32.67;;;11.80;99.90;;;;;;4996658;28;20637;-78
2022/04/15 04:18:44;;;;;;;55.45;33.00;;;11.90;99.90;;;;;;4997157;28;20197;-81
2022/04/15 04:21:10;;;;;;;53.63;32.67;;;12.00;99.90;;;;;;5001369;28;20508;-78
2022/04/15 04:23:36;;;;;;;56.88;30.85;;;11.80;99.90;;;;;;5000692;28;20197;-78
2022/04/15 04:26:03;;;;;;;62.33;31.33;;;11.90;99.90;;;;;;5000685;28;20196;-78
2022/04/15 04:28:29;;;;;;;57.03;32.17;;;11.80;99.90;;;;;;5000343;28;20228;-79
2022/04/15 04:30:55;;;;;;;62.13;32.88;;;11.90;99.90;;;;;;4999626;28;20649;-80
2022/04/15 04:33:22;;;;;;;50.30;29.88;;;11.80;99.90;;;;;;5000021;28;20261;-80
2022/04/15 04:35:48;;;;;;;55.92;28.52;;;11.70;99.90;;;;;;5000131;28;20240;-82
2022/04/15 04:38:16;;;;;;;47.13;27.23;;;11.60;99.90;;;;;;5000606;28;20176;-81
2022/04/15 04:40:41;;;;;;;47.80;28.10;;;11.50;99.90;;;;;;5001676;28;20205;-79
2022/04/15 04:43:08;;;;;;;54.88;29.65;;;11.30;99.90;;;;;;5002221;28;20236;-85
2022/04/15 04:45:34;;;;;;;42.92;28.02;;;11.40;99.90;;;;;;5001024;28;20193;-84
2022/04/15 04:48:04;;;;;;;39.03;25.17;;;11.50;99.90;;;;;;5001020;28;20259;-85
2022/04/15 04:50:31;;;;;;;46.72;27.23;;;11.40;99.90;;;;;;4999765;28;20536;-79
2022/04/15 04:52:57;;;;;;;43.58;26.30;;;11.30;99.90;;;;;;4999231;28;20195;-86
2022/04/15 04:55:22;;;;;;;50.10;25.88;;;11.30;99.90;;;;;;4999114;28;20184;-83
2022/04/15 04:57:48;;;;;;;45.08;27.33;;;11.40;99.90;;;;;;4999050;28;20181;-85
2022/04/15 05:00:16;;;;;;;51.20;27.63;;;11.40;99.90;;;;;;4999771;28;20165;-87
2022/04/15 05:02:42;;;;;;;48.97;28.15;;;11.40;99.90;;;;;;4998339;28;20377;-77
2022/04/15 05:05:09;;;;;;;63.88;27.08;;;11.50;99.90;;;;;;4996225;28;20269;-83
2022/04/15 05:07:35;;;;;;;49.63;29.55;;;11.40;99.90;;;;;;4996127;28;20703;-82
2022/04/15 05:10:01;;;;;;;56.70;30.55;;;11.40;99.90;;;;;;4996483;28;20519;-81
2022/04/15 05:12:26;;;;;;;49.67;29.67;;;11.40;99.90;;;;;;4996553;28;20165;-76
2022/04/15 05:14:52;;;;;;;56.97;31.00;;;11.30;99.90;;;;;;4995806;28;20196;-87
2022/04/15 05:17:18;;;;;;;55.40;30.40;;;11.30;99.90;;;;;;4995998;28;20169;-85
2022/04/15 05:19:44;;;;;;;49.28;29.10;;;11.10;99.90;;;;;;4996362;28;20280;-81
2022/04/15 05:22:11;;;;;;;53.03;30.33;;;11.20;99.90;;;;;;4996269;28;20169;-80
2022/04/15 05:24:37;;;;;;;50.25;31.10;;;11.30;99.90;;;;;;4995903;28;20212;-76
2022/04/15 05:27:03;;;;;;;63.10;33.42;;;11.40;99.90;;;;;;4995802;28;20207;-80
2022/04/15 05:29:29;;;;;;;64.50;31.17;;;11.60;99.90;;;;;;4995949;28;20184;-77
2022/04/15 05:31:54;;;;;;;52.05;31.67;;;11.60;99.90;;;;;;4995502;28;20170;-76
2022/04/15 05:34:20;;;;;;;56.97;28.88;;;11.50;99.90;;;;;;4994151;28;20237;-75
2022/04/15 05:36:46;;;;;;;61.78;31.48;;;11.40;99.90;;;;;;4995482;28;20173;-84
2022/04/15 05:39:11;;;;;;;49.78;31.73;;;11.40;99.90;;;;;;4995505;28;20772;-76
2022/04/15 05:41:37;;;;;;;54.75;30.05;;;11.50;99.90;;;;;;4995464;28;20173;-76
2022/04/15 05:44:03;;;;;;;55.88;31.35;;;11.50;99.90;;;;;;4994949;28;20688;-75
2022/04/15 05:46:30;;;;;;;73.53;33.25;;;11.80;99.90;;;;;;5005753;28;20171;-74
2022/04/15 05:48:55;;;;;;;58.42;32.78;;;11.90;99.90;;;;;;5001463;28;20181;-76
2022/04/15 05:51:21;;;;;;;63.63;31.70;;;12.10;99.90;;;;;;4994717;28;20165;-78
2022/04/15 05:53:46;;;;;;;53.05;31.48;;;12.00;99.90;;;;;;4994683;28;20196;-79
2022/04/15 05:56:12;;;;;;;70.97;35.72;;;12.10;99.90;;;;;;4995203;28;20180;-76
2022/04/15 05:58:40;;;;;;;60.47;32.83;;;12.20;99.90;;;;;;4994613;28;20169;-79
2022/04/15 06:01:09;;;;;;;54.58;31.88;;;12.30;99.90;;;;;;4994108;28;20534;-77
2022/04/15 06:03:35;;;;;;;60.33;34.28;;;12.20;99.90;;;;;;4995092;28;20196;-77
2022/04/15 06:06:01;;;;;;;55.25;33.03;;;12.40;99.90;;;;;;4994945;28;20173;-79
2022/04/15 06:08:28;;;;;;;61.03;33.22;;;12.50;99.90;;;;;;4994694;28;20228;-78
2022/04/15 06:10:54;;;;;;;50.47;31.80;;;12.50;99.90;;;;;;4994634;28;20219;-80
2022/04/15 06:13:22;;;;;;;63.45;33.63;;;12.50;99.90;;;;;;4994671;28;20235;-81
2022/04/15 06:15:53;;;;;;;67.45;31.00;;;12.60;99.90;;;;;;4994944;28;20173;-82
2022/04/15 06:18:22;;;;;;;53.42;30.77;;;12.80;99.90;;;;;;4994685;28;20176;-79
2022/04/15 06:20:48;;;;;;;50.67;30.92;;;12.80;99.90;;;;;;4994354;28;20162;-82
2022/04/15 06:23:15;;;;;;;51.85;31.85;;;12.70;99.90;;;;;;4994333;28;20204;-82
2022/04/15 06:25:41;;;;;;;62.60;30.45;;;12.80;99.90;;;;;;4993853;28;20165;-77
2022/04/15 06:28:08;;;;;;;50.55;31.23;;;12.60;99.90;;;;;;4994000;28;20292;-85
2022/04/15 06:30:34;;;;;;;56.13;30.95;;;12.60;99.90;;;;;;4994930;28;20304;-82
2022/04/15 06:32:59;;;;;;;54.75;33.13;;;12.60;99.90;;;;;;4994897;28;20229;-86
2022/04/15 06:35:25;;;;;;;47.30;30.17;;;12.60;99.90;;;;;;4994872;28;20524;-82
2022/04/15 06:37:52;;;;;;;56.25;31.40;;;12.50;99.90;;;;;;4994653;28;20196;-87
2022/04/15 06:40:17;;;;;;;55.92;30.98;;;12.60;99.90;;;;;;4994760;28;20692;-87
2022/04/15 06:42:43;;;;;;;58.25;31.20;;;12.60;99.90;;;;;;4994434;28;20173;-85
2022/04/15 06:45:11;;;;;;;52.63;30.52;;;12.60;99.90;;;;;;4993249;28;20165;-93
2022/04/15 06:47:37;;;;;;;54.80;31.42;;;12.40;99.90;;;;;;4993417;28;20209;-80
2022/04/15 06:50:03;;;;;;;55.58;30.17;;;12.60;99.90;;;;;;4995448;28;20180;-84
2022/04/15 06:52:29;;;;;;;59.65;32.88;;;12.50;99.90;;;;;;4996839;28;20223;-82
2022/04/15 06:54:55;;;;;;;59.65;30.67;;;12.60;99.90;;;;;;4995056;28;20189;-86
2022/04/15 06:57:20;;;;;;;53.28;31.13;;;12.80;99.90;;;;;;4994428;28;20513;-80
2022/04/15 06:59:46;;;;;;;53.97;29.85;;;12.80;99.90;;;;;;4996879;28;20645;-89
2022/04/15 07:02:11;;;;;;;55.78;28.77;;;12.90;99.90;;;;;;4997262;28;20715;-86
2022/04/15 07:04:37;;;;;;;51.97;30.50;;;13.10;99.90;;;;;;4996269;28;20765;-83
2022/04/15 07:07:03;;;;;;;62.90;30.63;;;13.20;99.90;;;;;;4993876;28;20196;-84
2022/04/15 07:09:29;;;;;;;51.03;29.33;;;13.30;99.90;;;;;;4994353;28;20634;-80
2022/04/15 07:11:56;;;;;;;59.10;28.70;;;13.20;99.90;;;;;;4994285;28;20181;-91
2022/04/15 07:14:23;;;;;;;54.20;26.25;;;13.30;99.90;;;;;;4993218;28;20197;-77
2022/04/15 07:16:48;;;;;;;43.63;24.15;;;13.20;99.90;;;;;;4993193;28;20200;-77
2022/04/15 07:19:14;;;;;;;40.53;24.58;;;13.00;99.90;;;;;;4995440;28;20180;-78
2022/04/15 07:21:44;;;;;;;49.83;25.30;;;13.20;99.90;;;;;;4987172;28;20264;-77
2022/04/15 07:24:10;;;;;;;47.58;24.25;;;13.30;99.90;;;;;;4992872;28;20350;-78
2022/04/15 07:26:36;;;;;;;37.97;23.10;;;13.40;99.90;;;;;;4993190;28;20644;-79
2022/04/15 07:29:02;;;;;;;47.10;24.60;;;13.40;99.90;;;;;;4993753;28;20622;-79
2022/04/15 07:31:28;;;;;;;41.80;23.17;;;13.40;99.90;;;;;;4993474;28;20256;-80
2022/04/15 07:33:54;;;;;;;43.83;21.08;;;13.70;99.90;;;;;;4991666;28;20713;-77
2022/04/15 07:36:31;;;;;;;31.88;19.35;;;13.60;99.90;;;;;;4992911;28;20231;-82
2022/04/15 07:38:57;;;;;;;34.53;18.70;;;13.60;99.90;;;;;;4993100;28;20165;-80
2022/04/15 07:41:23;;;;;;;31.83;17.38;;;13.70;99.90;;;;;;4993628;28;20269;-81
2022/04/15 07:43:48;;;;;;;37.15;21.40;;;13.50;99.90;;;;;;4993186;28;20197;-83
2022/04/15 07:46:15;;;;;;;37.08;18.67;;;13.40;99.90;;;;;;4993419;28;20177;-82
2022/04/15 07:48:41;;;;;;;35.95;17.67;;;13.50;99.90;;;;;;4993317;28;20201;-79
2022/04/15 07:51:06;;;;;;;28.98;16.77;;;13.60;99.90;;;;;;4999427;28;20223;-90
2022/04/15 07:53:32;;;;;;;27.38;17.50;;;13.80;99.90;;;;;;4995053;28;20283;-92
2022/04/15 07:55:57;;;;;;;37.40;18.75;;;14.10;99.90;;;;;;4994397;28;20169;-89
2022/04/15 07:58:23;;;;;;;33.70;19.85;;;14.00;99.90;;;;;;4993660;28;20164;-87
2022/04/15 08:00:49;;;;;;;38.42;17.55;;;14.20;99.90;;;;;;4993102;28;20297;-82
2022/04/15 08:03:17;;;;;;;33.65;17.08;;;14.40;99.90;;;;;;4992218;28;20297;-81
2022/04/15 08:05:43;;;;;;;37.22;18.98;;;14.50;99.90;;;;;;4992924;28;20537;-86
2022/04/15 08:08:08;;;;;;;30.52;17.30;;;14.60;99.90;;;;;;4991977;28;20271;-81
2022/04/15 08:10:34;;;;;;;25.63;18.42;;;14.60;99.90;;;;;;4993312;28;20173;-82
2022/04/15 08:13:02;;;;;;;38.05;20.02;;;14.70;99.90;;;;;;4990859;28;20639;-83
2022/04/15 08:15:27;;;;;;;32.00;19.65;;;14.60;99.90;;;;;;4989966;28;20165;-83
2022/04/15 08:17:53;;;;;;;33.08;19.33;;;14.90;99.90;;;;;;4992553;28;20696;-82
2022/04/15 08:20:18;;;;;;;31.20;18.73;;;15.20;99.90;;;;;;4992855;28;20192;-79
2022/04/15 08:22:44;;;;;;;28.75;17.20;;;15.30;99.90;;;;;;4991375;28;20231;-79
2022/04/15 08:25:10;;;;;;;31.80;16.85;;;15.40;99.90;;;;;;4991210;28;20168;-80
2022/04/15 08:27:35;;;;;;;25.35;15.90;;;15.60;99.90;;;;;;4988308;28;20260;-79
2022/04/15 08:30:01;;;;;;;23.83;15.38;;;15.60;99.90;;;;;;4991539;28;20658;-82
2022/04/15 08:32:33;;;;;;;31.70;15.15;;;15.60;99.90;;;;;;4991610;28;20572;-81
2022/04/15 08:35:03;;;;;;;23.45;13.82;;;15.50;99.90;;;;;;4991581;28;20528;-83
2022/04/15 08:37:29;;;;;;;22.48;15.43;;;15.50;99.90;;;;;;4990520;28;20235;-89
2022/04/15 08:39:54;;;;;;;19.40;14.80;;;15.60;99.90;;;;;;4992005;28;20260;-84
2022/04/15 08:42:21;;;;;;;21.17;14.63;;;15.70;99.90;;;;;;4991190;28;20651;-81
2022/04/15 08:44:56;;;;;;;21.15;13.90;;;15.90;99.90;;;;;;4993016;28;20268;-85
2022/04/15 08:47:22;;;;;;;20.95;13.18;;;16.10;99.90;;;;;;4993106;28;20217;-81
2022/04/15 08:49:48;;;;;;;20.10;11.18;;;16.00;99.90;;;;;;4994247;28;20177;-80
2022/04/15 08:52:17;;;;;;;21.17;11.88;;;16.20;99.90;;;;;;4996084;28;20192;-83
2022/04/15 08:54:44;;;;;;;15.35;12.00;;;16.20;99.90;;;;;;4996469;28;20208;-79
2022/04/15 08:57:10;;;;;;;19.70;11.98;;;16.50;99.90;;;;;;4996548;28;20248;-80
2022/04/15 08:59:36;;;;;;;12.02;10.52;;;16.50;99.90;;;;;;4996421;28;20256;-80
2022/04/15 09:02:02;;;;;;;17.35;11.75;;;16.40;99.90;;;;;;4994731;28;20169;-79
2022/04/15 09:04:28;;;;;;;15.23;9.45;;;16.50;99.90;;;;;;4995192;28;20592;-79
2022/04/15 09:07:01;;;;;;;14.18;8.32;;;16.50;99.90;;;;;;4995443;28;20232;-79
2022/04/15 09:09:31;;;;;;;16.05;8.15;;;16.60;99.90;;;;;;4995502;28;20252;-79
2022/04/15 09:12:04;;;;;;;12.55;8.23;;;16.60;99.90;;;;;;4995785;28;20544;-79
2022/04/15 09:14:29;;;;;;;8.00;6.10;;;16.70;99.90;;;;;;4995450;28;20550;-79
2022/04/15 09:16:55;;;;;;;9.43;8.30;;;16.60;99.90;;;;;;4995455;28;20165;-79
2022/04/15 09:19:21;;;;;;;17.13;7.63;;;16.70;99.90;;;;;;4995735;28;20676;-80
2022/04/15 09:21:59;;;;;;;12.90;8.18;;;16.40;99.90;;;;;;4995285;28;20235;-85
2022/04/15 09:24:32;;;;;;;11.00;8.35;;;16.40;99.90;;;;;;4997194;28;20193;-82
2022/04/15 09:27:02;;;;;;;11.00;7.15;;;16.50;99.90;;;;;;4996789;28;20201;-81
2022/04/15 09:29:33;;;;;;;12.23;5.95;;;16.60;99.90;;;;;;4995687;28;20180;-81
2022/04/15 09:32:06;;;;;;;11.93;8.55;;;16.70;99.90;;;;;;4996176;28;20191;-81
2022/04/15 09:34:31;;;;;;;11.77;8.27;;;16.80;99.90;;;;;;4996672;28;20291;-80
2022/04/15 09:36:57;;;;;;;14.95;9.35;;;16.80;99.90;;;;;;4994925;28;20249;-82
2022/04/15 09:39:23;;;;;;;12.60;9.93;;;16.80;99.90;;;;;;4993962;28;20193;-82
2022/04/15 09:41:56;;;;;;;9.25;7.20;;;16.90;99.90;;;;;;4993874;28;20168;-82
2022/04/15 09:44:31;;;;;;;16.88;7.18;;;16.80;99.90;;;;;;4995254;28;20212;-83
2022/04/15 09:46:57;;;;;;;10.80;6.55;;;17.00;99.90;;;;;;4995073;28;20219;-82
2022/04/15 09:49:25;;;;;;;11.13;8.00;;;17.10;99.90;;;;;;4993821;28;20637;-82
2022/04/15 09:51:53;;;;;;;10.82;7.97;;;17.10;99.90;;;;;;4993719;28;20165;-83
2022/04/15 09:54:24;;;;;;;17.27;7.72;;;17.20;99.90;;;;;;4993156;28;20604;-82
2022/04/15 09:56:55;;;;;;;10.57;7.22;;;17.20;99.90;;;;;;4994999;28;20166;-82
2022/04/15 09:59:24;;;;;;;11.13;8.13;;;17.40;99.90;;;;;;4993452;28;20169;-83
2022/04/15 10:01:54;;;;;;;9.52;6.75;;;17.50;99.90;;;;;;4992506;28;20169;-82
2022/04/15 10:04:20;;;;;;;19.40;9.00;;;17.40;99.90;;;;;;4993049;28;20197;-82
2022/04/15 10:06:46;;;;;;;8.73;7.15;;;17.60;99.90;;;;;;4993153;28;20208;-84
2022/04/15 10:09:13;;;;;;;10.85;7.18;;;17.50;99.90;;;;;;4993104;28;20173;-86
2022/04/15 10:11:43;;;;;;;16.15;9.00;;;17.50;99.90;;;;;;4993117;28;20168;-82
2022/04/15 10:14:11;;;;;;;10.40;7.93;;;17.50;99.90;;;;;;4994007;28;20628;-82
2022/04/15 10:16:42;;;;;;;17.98;8.50;;;17.70;99.90;;;;;;4993085;28;20175;-83
2022/04/15 10:19:09;;;;;;;8.20;7.50;;;17.80;99.90;;;;;;4992753;28;20178;-80
2022/04/15 10:21:41;;;;;;;10.27;7.55;;;17.70;99.90;;;;;;4994310;28;20165;-80
2022/04/15 10:24:09;;;;;;;13.45;8.30;;;17.40;99.90;;;;;;4992764;28;20193;-80
2022/04/15 10:26:44;;;;;;;13.27;8.35;;;17.40;99.90;;;;;;4993912;28;20169;-80
2022/04/15 10:29:10;;;;;;;13.45;8.27;;;17.20;99.90;;;;;;4994042;28;20203;-80
2022/04/15 10:31:37;;;;;;;11.73;7.38;;;17.50;99.90;;;;;;4994079;28;20700;-81
2022/04/15 10:34:14;;;;;;;9.80;8.07;;;17.90;99.90;;;;;;4992694;28;20287;-80
2022/04/15 10:36:47;;;;;;;9.43;7.50;;;18.00;99.90;;;;;;4992906;28;20575;-85
2022/04/15 10:39:16;;;;;;;8.45;6.47;;;18.10;99.90;;;;;;4993568;28;20179;-84
2022/04/15 10:41:41;;;;;;;6.10;5.50;;;17.80;99.90;;;;;;4993411;28;20216;-88
2022/04/15 10:44:30;;;;;;;10.40;6.72;;;17.80;99.90;;;;;;4993322;28;20221;-87
2022/04/15 10:47:17;;;;;;;7.88;7.07;;;17.80;99.90;;;;;;4992956;28;20216;-85
2022/04/15 10:50:12;;;;;;;12.23;7.65;;;17.90;99.90;;;;;;4994334;28;20188;-84
2022/04/15 10:52:38;;;;;;;12.43;6.25;;;17.70;99.90;;;;;;4985074;28;20209;-86
2022/04/15 10:55:06;;;;;;;9.23;6.43;;;17.70;99.90;;;;;;4992745;28;20181;-88
2022/04/15 10:57:36;;;;;;;10.45;6.68;;;17.80;99.90;;;;;;4993494;28;20585;-83
2022/04/15 11:02:55;;;;;;;14.60;8.00;;;17.70;99.90;;;;;;4994454;28;20205;-87
2022/04/15 11:05:43;;;;;;;11.98;9.02;;;17.90;99.90;;;;;;4992855;28;20169;-87
2022/04/15 11:08:16;;;;;;;14.45;10.00;;;18.30;99.90;;;;;;4992775;28;20268;-89
2022/04/15 11:11:03;;;;;;;12.35;8.40;;;18.30;99.90;;;;;;5009002;28;20579;-91
2022/04/15 11:13:39;;;;;;;18.65;12.52;;;18.40;99.90;;;;;;4992381;28;20189;-86
2022/04/15 11:16:15;;;;;;;16.20;12.13;;;18.60;99.90;;;;;;4992906;28;20203;-82
2022/04/15 11:18:43;;;;;;;16.50;12.00;;;18.40;99.90;;;;;;4994038;28;20198;-85
2022/04/15 11:21:19;;;;;;;21.08;12.63;;;18.40;99.90;;;;;;4994108;28;20180;-84
2022/04/15 11:23:53;;;;;;;14.80;12.05;;;18.10;99.90;;;;;;4992492;28;20208;-83
2022/04/15 11:26:25;;;;;;;12.15;11.00;;;17.90;99.90;;;;;;5009355;28;20279;-83
2022/04/15 11:28:52;;;;;;;18.98;12.30;;;17.70;99.90;;;;;;4993355;28;20205;-82
2022/04/15 11:31:39;;;;;;;11.60;10.13;;;17.80;99.90;;;;;;4992160;28;20192;-81
2022/04/15 11:34:16;;;;;;;22.77;10.80;;;17.90;99.90;;;;;;4993298;28;20248;-80
2022/04/15 11:36:46;;;;;;;12.82;9.70;;;18.00;99.90;;;;;;4993094;28;20263;-80
2022/04/15 11:39:14;;;;;;;16.10;8.75;;;17.90;99.90;;;;;;4993097;28;20624;-88
2022/04/15 11:41:47;;;;;;;9.38;8.00;;;17.70;99.90;;;;;;4992643;28;20161;-83
2022/04/15 11:44:14;;;;;;;13.27;5.97;;;17.50;99.90;;;;;;4993006;28;20212;-83
2022/04/15 11:46:51;;;;;;;10.77;6.03;;;17.70;99.90;;;;;;4991450;28;20173;-88
2022/04/15 11:49:27;;;;;;;7.28;6.57;;;17.60;99.90;;;;;;4993523;28;20173;-89
2022/04/15 11:51:58;;;;;;;7.05;5.38;;;17.50;99.90;;;;;;4992656;28;20181;-87
2022/04/15 11:54:30;;;;;;;7.05;6.30;;;17.40;99.90;;;;;;4992297;28;20212;-83
2022/04/15 11:56:57;;;;;;;10.07;5.82;;;17.50;99.90;;;;;;4991819;28;20644;-86
2022/04/15 11:59:24;;;;;;;9.27;7.10;;;17.60;99.90;;;;;;4992350;28;20177;-84
2022/04/15 12:01:51;;;;;;;8.35;6.70;;;17.60;99.90;;;;;;4991668;28;20169;-82
2022/04/15 12:04:17;;;;;;;7.32;6.60;;;17.50;99.90;;;;;;4991716;28;20272;-82
2022/04/15 12:06:42;;;;;;;8.82;7.35;;;17.50;99.90;;;;;;4992261;28;20207;-84
2022/04/15 12:09:13;;;;;;;6.05;5.45;;;17.50;99.90;;;;;;4992815;28;20572;-84
2022/04/15 12:11:39;;;;;;;9.68;5.90;;;17.40;99.90;;;;;;4993108;28;20705;-86
2022/04/15 12:14:07;;;;;;;8.20;6.38;;;17.50;99.90;;;;;;4991718;28;20638;-88
2022/04/15 12:16:36;;;;;;;10.48;6.20;;;17.60;99.90;;;;;;4991647;28;20169;-86
2022/04/15 12:19:03;;;;;;;12.30;5.90;;;17.70;99.90;;;;;;4993301;28;20227;-86
2022/04/15 12:21:29;;;;;;;8.00;4.78;;;17.80;99.90;;;;;;4993110;28;20177;-87
2022/04/15 12:24:09;;;;;;;6.00;5.40;;;17.80;99.90;;;;;;4993516;28;20259;-86
2022/04/15 12:26:51;;;;;;;10.45;5.70;;;17.70;99.90;;;;;;4996556;28;20467;-86
2022/04/15 12:32:35;;;;;;;5.03;4.53;;;17.90;99.90;;;;;;4997319;28;20256;-85
2022/04/15 12:35:00;;;;;;;10.27;6.32;;;17.80;99.90;;;;;;4996171;28;20188;-84
2022/04/15 12:37:49;;;;;;;6.05;5.38;;;18.00;99.90;;;;;;4995281;28;20588;-87
2022/04/15 12:40:14;;;;;;;8.13;5.35;;;18.10;99.90;;;;;;4997029;28;20165;-84